sensor_id;sensor_type;location;lat;lon;timestamp;temperature;humidity
3638;DHT22;1835;50.068;8.154;2023-03-12T00:00:58;0.20;99.90
3638;DHT22;1835;50.068;8.154;2023-03-12T00:03:27;0.20;99.90
3638;DHT22;1835;50.068;8.154;2023-03-12T00:05:55;0.30;99.90
3638;DHT22;1835;50.068;8.154;2023-03-12T00:08:27;0.20;99.90
3638;DHT22;1835;50.068;8.154;2023-03-12T00:10:56;0.00;99.90
3638;DHT22;1835;50.068;8.154;2023-03-12T00:13:24;0.00;99.90
3638;DHT22;1835;50.068;8.154;2023-03-12T00:15:52;-0.20;99.90
3638;DHT22;1835;50.068;8.154;2023-03-12T00:18:20;0.00;99.90
3638;DHT22;1835;50.068;8.154;2023-03-12T00:20:53;0.00;99.90
3638;DHT22;1835;50.068;8.154;2023-03-12T00:23:21;0.10;99.90
3638;DHT22;1835;50.068;8.154;2023-03-12T00:25:49;0.00;99.90
3638;DHT22;1835;50.068;8.154;2023-03-12T00:28:18;0.10;99.90
3638;DHT22;1835;50.068;8.154;2023-03-12T00:30:46;0.20;99.90
3638;DHT22;1835;50.068;8.154;2023-03-12T00:33:14;0.10;99.90
3638;DHT22;1835;50.068;8.154;2023-03-12T00:35:42;0.20;99.90
3638;DHT22;1835;50.068;8.154;2023-03-12T00:38:10;0.10;99.90
3638;DHT22;1835;50.068;8.154;2023-03-12T00:40:38;0.10;99.90
3638;DHT22;1835;50.068;8.154;2023-03-12T00:43:06;0.20;99.90
3638;DHT22;1835;50.068;8.154;2023-03-12T00:45:35;0.40;99.90
3638;DHT22;1835;50.068;8.154;2023-03-12T00:48:04;0.30;99.90
3638;DHT22;1835;50.068;8.154;2023-03-12T00:50:32;0.20;99.90
3638;DHT22;1835;50.068;8.154;2023-03-12T00:53:00;0.30;99.90
3638;DHT22;1835;50.068;8.154;2023-03-12T00:55:28;0.60;99.90
3638;DHT22;1835;50.068;8.154;2023-03-12T00:57:56;0.40;99.90
3638;DHT22;1835;50.068;8.154;2023-03-12T01:00:24;0.40;99.90
3638;DHT22;1835;50.068;8.154;2023-03-12T01:02:54;0.30;99.90
3638;DHT22;1835;50.068;8.154;2023-03-12T01:05:22;0.30;99.90
3638;DHT22;1835;50.068;8.154;2023-03-12T01:07:50;0.30;99.90
3638;DHT22;1835;50.068;8.154;2023-03-12T01:10:20;0.20;99.90
3638;DHT22;1835;50.068;8.154;2023-03-12T01:12:48;0.10;99.90
3638;DHT22;1835;50.068;8.154;2023-03-12T01:15:17;0.00;99.90
3638;DHT22;1835;50.068;8.154;2023-03-12T01:17:45;0.00;99.90
3638;DHT22;1835;50.068;8.154;2023-03-12T01:20:15;0.30;99.90
3638;DHT22;1835;50.068;8.154;2023-03-12T01:22:43;0.20;99.90
3638;DHT22;1835;50.068;8.154;2023-03-12T01:25:11;0.20;99.90
3638;DHT22;1835;50.068;8.154;2023-03-12T01:27:39;0.20;99.90
3638;DHT22;1835;50.068;8.154;2023-03-12T01:30:09;0.20;99.90
3638;DHT22;1835;50.068;8.154;2023-03-12T01:32:37;0.00;99.90
3638;DHT22;1835;50.068;8.154;2023-03-12T01:35:06;0.00;99.90
3638;DHT22;1835;50.068;8.154;2023-03-12T01:37:36;0.00;99.90
3638;DHT22;1835;50.068;8.154;2023-03-12T01:40:05;0.30;99.90
3638;DHT22;1835;50.068;8.154;2023-03-12T01:42:34;0.20;99.90
3638;DHT22;1835;50.068;8.154;2023-03-12T01:45:03;0.30;99.90
3638;DHT22;1835;50.068;8.154;2023-03-12T01:47:32;0.30;99.90
3638;DHT22;1835;50.068;8.154;2023-03-12T01:50:01;0.40;99.90
3638;DHT22;1835;50.068;8.154;2023-03-12T01:52:33;0.40;99.90
3638;DHT22;1835;50.068;8.154;2023-03-12T01:55:06;0.30;99.90
3638;DHT22;1835;50.068;8.154;2023-03-12T01:57:38;0.30;99.90
3638;DHT22;1835;50.068;8.154;2023-03-12T02:00:11;0.50;99.90
3638;DHT22;1835;50.068;8.154;2023-03-12T02:02:41;0.50;99.90
3638;DHT22;1835;50.068;8.154;2023-03-12T02:05:14;0.40;99.90
3638;DHT22;1835;50.068;8.154;2023-03-12T02:07:48;0.40;99.90
3638;DHT22;1835;50.068;8.154;2023-03-12T02:10:16;0.40;99.90
3638;DHT22;1835;50.068;8.154;2023-03-12T02:12:44;0.40;99.90
3638;DHT22;1835;50.068;8.154;2023-03-12T02:15:12;0.40;99.90
3638;DHT22;1835;50.068;8.154;2023-03-12T02:17:40;0.50;99.90
3638;DHT22;1835;50.068;8.154;2023-03-12T02:20:14;0.40;99.90
3638;DHT22;1835;50.068;8.154;2023-03-12T02:22:51;0.30;99.90
3638;DHT22;1835;50.068;8.154;2023-03-12T02:25:30;0.30;99.90
3638;DHT22;1835;50.068;8.154;2023-03-12T02:28:04;0.40;99.90
3638;DHT22;1835;50.068;8.154;2023-03-12T02:30:34;0.50;99.90
3638;DHT22;1835;50.068;8.154;2023-03-12T02:33:06;0.50;99.90
3638;DHT22;1835;50.068;8.154;2023-03-12T02:35:35;0.40;99.90
3638;DHT22;1835;50.068;8.154;2023-03-12T02:38:35;0.50;99.90
3638;DHT22;1835;50.068;8.154;2023-03-12T02:41:10;0.60;99.90
3638;DHT22;1835;50.068;8.154;2023-03-12T02:43:43;0.60;99.90
3638;DHT22;1835;50.068;8.154;2023-03-12T02:46:13;0.50;99.90
3638;DHT22;1835;50.068;8.154;2023-03-12T02:48:42;0.60;99.90
3638;DHT22;1835;50.068;8.154;2023-03-12T02:51:10;0.60;99.90
3638;DHT22;1835;50.068;8.154;2023-03-12T02:53:38;0.60;99.90
3638;DHT22;1835;50.068;8.154;2023-03-12T02:56:08;0.70;99.90
3638;DHT22;1835;50.068;8.154;2023-03-12T02:58:36;0.70;99.90
3638;DHT22;1835;50.068;8.154;2023-03-12T03:01:04;0.90;99.90
3638;DHT22;1835;50.068;8.154;2023-03-12T03:03:32;0.80;99.90
3638;DHT22;1835;50.068;8.154;2023-03-12T03:06:00;0.70;99.90
3638;DHT22;1835;50.068;8.154;2023-03-12T03:08:28;0.80;99.90
3638;DHT22;1835;50.068;8.154;2023-03-12T03:10:56;0.70;99.90
3638;DHT22;1835;50.068;8.154;2023-03-12T03:13:26;0.60;99.90
3638;DHT22;1835;50.068;8.154;2023-03-12T03:15:54;0.60;99.90
3638;DHT22;1835;50.068;8.154;2023-03-12T03:18:23;0.70;99.90
3638;DHT22;1835;50.068;8.154;2023-03-12T03:20:54;0.60;99.90
3638;DHT22;1835;50.068;8.154;2023-03-12T03:23:23;0.60;99.90
3638;DHT22;1835;50.068;8.154;2023-03-12T03:25:51;0.60;99.90
3638;DHT22;1835;50.068;8.154;2023-03-12T03:28:21;0.70;99.90
3638;DHT22;1835;50.068;8.154;2023-03-12T03:30:53;0.70;99.90
3638;DHT22;1835;50.068;8.154;2023-03-12T03:33:24;0.70;99.90
3638;DHT22;1835;50.068;8.154;2023-03-12T03:35:53;0.80;99.90
3638;DHT22;1835;50.068;8.154;2023-03-12T03:38:21;0.80;99.90
3638;DHT22;1835;50.068;8.154;2023-03-12T03:40:49;0.70;99.90
3638;DHT22;1835;50.068;8.154;2023-03-12T03:43:18;0.80;99.90
3638;DHT22;1835;50.068;8.154;2023-03-12T03:45:46;0.80;99.90
3638;DHT22;1835;50.068;8.154;2023-03-12T03:48:16;0.70;99.90
3638;DHT22;1835;50.068;8.154;2023-03-12T03:50:44;0.80;99.90
3638;DHT22;1835;50.068;8.154;2023-03-12T03:53:12;0.80;99.90
3638;DHT22;1835;50.068;8.154;2023-03-12T03:55:41;0.90;99.90
3638;DHT22;1835;50.068;8.154;2023-03-12T03:58:09;0.80;99.90
3638;DHT22;1835;50.068;8.154;2023-03-12T04:00:37;0.90;99.90
3638;DHT22;1835;50.068;8.154;2023-03-12T04:03:05;0.90;99.90
3638;DHT22;1835;50.068;8.154;2023-03-12T04:05:35;0.90;99.90
3638;DHT22;1835;50.068;8.154;2023-03-12T04:08:03;0.90;99.90
3638;DHT22;1835;50.068;8.154;2023-03-12T04:10:32;0.80;99.90
3638;DHT22;1835;50.068;8.154;2023-03-12T04:13:00;0.90;99.90
3638;DHT22;1835;50.068;8.154;2023-03-12T04:15:28;0.80;99.90
3638;DHT22;1835;50.068;8.154;2023-03-12T04:17:56;0.80;99.90
3638;DHT22;1835;50.068;8.154;2023-03-12T04:20:24;0.80;99.90
3638;DHT22;1835;50.068;8.154;2023-03-12T04:22:53;0.80;99.90
3638;DHT22;1835;50.068;8.154;2023-03-12T04:25:21;0.80;99.90
3638;DHT22;1835;50.068;8.154;2023-03-12T04:27:49;0.70;99.90
3638;DHT22;1835;50.068;8.154;2023-03-12T04:30:17;0.80;99.90
3638;DHT22;1835;50.068;8.154;2023-03-12T04:32:46;0.80;99.90
3638;DHT22;1835;50.068;8.154;2023-03-12T04:35:14;0.80;99.90
3638;DHT22;1835;50.068;8.154;2023-03-12T04:37:42;0.80;99.90
3638;DHT22;1835;50.068;8.154;2023-03-12T04:40:12;0.70;99.90
3638;DHT22;1835;50.068;8.154;2023-03-12T04:42:41;0.80;99.90
3638;DHT22;1835;50.068;8.154;2023-03-12T04:45:10;0.90;99.90
3638;DHT22;1835;50.068;8.154;2023-03-12T04:47:38;0.90;99.90
3638;DHT22;1835;50.068;8.154;2023-03-12T04:50:07;1.00;99.90
3638;DHT22;1835;50.068;8.154;2023-03-12T04:52:36;1.00;99.90
3638;DHT22;1835;50.068;8.154;2023-03-12T04:55:05;1.00;99.90
3638;DHT22;1835;50.068;8.154;2023-03-12T04:57:35;1.00;99.90
3638;DHT22;1835;50.068;8.154;2023-03-12T05:00:04;1.10;99.90
3638;DHT22;1835;50.068;8.154;2023-03-12T05:02:36;1.10;99.90
3638;DHT22;1835;50.068;8.154;2023-03-12T05:05:05;1.10;99.90
3638;DHT22;1835;50.068;8.154;2023-03-12T05:07:33;1.10;99.90
3638;DHT22;1835;50.068;8.154;2023-03-12T05:10:02;1.10;99.90
3638;DHT22;1835;50.068;8.154;2023-03-12T05:12:30;1.10;99.90
3638;DHT22;1835;50.068;8.154;2023-03-12T05:15:00;1.20;99.90
3638;DHT22;1835;50.068;8.154;2023-03-12T05:17:27;1.20;99.90
3638;DHT22;1835;50.068;8.154;2023-03-12T05:19:56;1.30;99.90
3638;DHT22;1835;50.068;8.154;2023-03-12T05:22:24;1.30;99.90
3638;DHT22;1835;50.068;8.154;2023-03-12T05:24:52;1.30;99.90
3638;DHT22;1835;50.068;8.154;2023-03-12T05:27:20;1.30;99.90
3638;DHT22;1835;50.068;8.154;2023-03-12T05:29:48;1.30;99.90
3638;DHT22;1835;50.068;8.154;2023-03-12T05:32:17;1.30;99.90
3638;DHT22;1835;50.068;8.154;2023-03-12T05:34:45;1.40;99.90
3638;DHT22;1835;50.068;8.154;2023-03-12T05:37:14;1.50;99.90
3638;DHT22;1835;50.068;8.154;2023-03-12T05:39:42;1.70;99.90
3638;DHT22;1835;50.068;8.154;2023-03-12T05:42:12;1.60;99.90
3638;DHT22;1835;50.068;8.154;2023-03-12T05:44:41;1.50;99.90
3638;DHT22;1835;50.068;8.154;2023-03-12T05:47:09;1.40;99.90
3638;DHT22;1835;50.068;8.154;2023-03-12T05:49:39;1.40;99.90
3638;DHT22;1835;50.068;8.154;2023-03-12T05:52:07;1.40;99.90
3638;DHT22;1835;50.068;8.154;2023-03-12T05:54:35;1.30;99.90
3638;DHT22;1835;50.068;8.154;2023-03-12T05:57:03;1.40;99.90
3638;DHT22;1835;50.068;8.154;2023-03-12T05:59:31;1.40;99.90
3638;DHT22;1835;50.068;8.154;2023-03-12T06:01:59;1.30;99.90
3638;DHT22;1835;50.068;8.154;2023-03-12T06:04:28;1.40;99.90
3638;DHT22;1835;50.068;8.154;2023-03-12T06:06:57;1.40;99.90
3638;DHT22;1835;50.068;8.154;2023-03-12T06:09:25;1.30;99.90
3638;DHT22;1835;50.068;8.154;2023-03-12T06:11:53;1.20;99.90
3638;DHT22;1835;50.068;8.154;2023-03-12T06:14:21;1.30;99.90
3638;DHT22;1835;50.068;8.154;2023-03-12T06:16:49;1.20;99.90
3638;DHT22;1835;50.068;8.154;2023-03-12T06:19:17;1.20;99.90
3638;DHT22;1835;50.068;8.154;2023-03-12T06:21:46;1.20;99.90
3638;DHT22;1835;50.068;8.154;2023-03-12T06:24:15;1.10;99.90
3638;DHT22;1835;50.068;8.154;2023-03-12T06:26:43;1.30;99.90
3638;DHT22;1835;50.068;8.154;2023-03-12T06:29:11;1.40;99.90
3638;DHT22;1835;50.068;8.154;2023-03-12T06:31:39;1.40;99.90
3638;DHT22;1835;50.068;8.154;2023-03-12T06:34:08;1.40;99.90
3638;DHT22;1835;50.068;8.154;2023-03-12T06:36:36;1.40;99.90
3638;DHT22;1835;50.068;8.154;2023-03-12T06:39:04;1.50;99.90
3638;DHT22;1835;50.068;8.154;2023-03-12T06:41:35;1.50;99.90
3638;DHT22;1835;50.068;8.154;2023-03-12T06:44:03;1.70;99.90
3638;DHT22;1835;50.068;8.154;2023-03-12T06:46:32;1.70;99.90
3638;DHT22;1835;50.068;8.154;2023-03-12T06:49:01;1.80;99.90
3638;DHT22;1835;50.068;8.154;2023-03-12T06:51:29;1.90;99.90
3638;DHT22;1835;50.068;8.154;2023-03-12T06:53:57;2.00;99.90
3638;DHT22;1835;50.068;8.154;2023-03-12T06:56:26;2.30;99.90
3638;DHT22;1835;50.068;8.154;2023-03-12T06:58:56;2.30;99.90
3638;DHT22;1835;50.068;8.154;2023-03-12T07:01:24;2.10;99.90
3638;DHT22;1835;50.068;8.154;2023-03-12T07:03:52;1.90;99.90
3638;DHT22;1835;50.068;8.154;2023-03-12T07:06:21;1.70;99.90
3638;DHT22;1835;50.068;8.154;2023-03-12T07:08:50;1.90;99.90
3638;DHT22;1835;50.068;8.154;2023-03-12T07:11:18;2.30;99.90
3638;DHT22;1835;50.068;8.154;2023-03-12T07:13:46;2.30;99.90
3638;DHT22;1835;50.068;8.154;2023-03-12T07:16:16;2.10;99.90
3638;DHT22;1835;50.068;8.154;2023-03-12T07:18:44;1.90;99.90
3638;DHT22;1835;50.068;8.154;2023-03-12T07:21:12;1.70;99.90
3638;DHT22;1835;50.068;8.154;2023-03-12T07:23:42;1.60;99.90
3638;DHT22;1835;50.068;8.154;2023-03-12T07:26:10;1.50;99.90
3638;DHT22;1835;50.068;8.154;2023-03-12T07:28:38;1.50;99.90
3638;DHT22;1835;50.068;8.154;2023-03-12T07:31:06;1.40;99.90
3638;DHT22;1835;50.068;8.154;2023-03-12T07:33:35;1.40;99.90
3638;DHT22;1835;50.068;8.154;2023-03-12T07:36:04;1.40;99.90
3638;DHT22;1835;50.068;8.154;2023-03-12T07:38:33;1.80;99.90
3638;DHT22;1835;50.068;8.154;2023-03-12T07:41:01;1.60;99.90
3638;DHT22;1835;50.068;8.154;2023-03-12T07:43:29;1.70;99.90
3638;DHT22;1835;50.068;8.154;2023-03-12T07:45:58;1.60;99.90
3638;DHT22;1835;50.068;8.154;2023-03-12T07:48:26;1.50;99.90
3638;DHT22;1835;50.068;8.154;2023-03-12T07:50:56;1.40;99.90
3638;DHT22;1835;50.068;8.154;2023-03-12T07:53:24;1.50;99.90
3638;DHT22;1835;50.068;8.154;2023-03-12T07:55:51;1.40;99.90
3638;DHT22;1835;50.068;8.154;2023-03-12T07:58:21;1.30;99.90
3638;DHT22;1835;50.068;8.154;2023-03-12T08:00:49;1.30;99.90
3638;DHT22;1835;50.068;8.154;2023-03-12T08:03:19;1.30;99.90
3638;DHT22;1835;50.068;8.154;2023-03-12T08:05:56;1.30;99.90
3638;DHT22;1835;50.068;8.154;2023-03-12T08:08:26;1.40;99.90
3638;DHT22;1835;50.068;8.154;2023-03-12T08:10:54;1.40;99.90
3638;DHT22;1835;50.068;8.154;2023-03-12T08:13:23;1.40;99.90
3638;DHT22;1835;50.068;8.154;2023-03-12T08:15:52;1.50;99.90
3638;DHT22;1835;50.068;8.154;2023-03-12T08:18:21;1.40;99.90
3638;DHT22;1835;50.068;8.154;2023-03-12T08:20:51;1.40;99.90
3638;DHT22;1835;50.068;8.154;2023-03-12T08:23:21;1.40;99.90
3638;DHT22;1835;50.068;8.154;2023-03-12T08:25:50;1.50;99.90
3638;DHT22;1835;50.068;8.154;2023-03-12T08:28:20;1.60;99.90
3638;DHT22;1835;50.068;8.154;2023-03-12T08:30:50;1.80;99.90
3638;DHT22;1835;50.068;8.154;2023-03-12T08:33:19;2.10;99.90
3638;DHT22;1835;50.068;8.154;2023-03-12T08:35:48;2.10;99.90
3638;DHT22;1835;50.068;8.154;2023-03-12T08:38:17;2.30;99.90
3638;DHT22;1835;50.068;8.154;2023-03-12T08:40:53;2.40;99.90
3638;DHT22;1835;50.068;8.154;2023-03-12T08:43:23;2.60;99.90
3638;DHT22;1835;50.068;8.154;2023-03-12T08:45:54;2.80;99.90
3638;DHT22;1835;50.068;8.154;2023-03-12T08:48:23;2.90;99.90
3638;DHT22;1835;50.068;8.154;2023-03-12T08:50:54;3.00;99.90
3638;DHT22;1835;50.068;8.154;2023-03-12T08:53:22;2.60;99.90
3638;DHT22;1835;50.068;8.154;2023-03-12T08:55:53;2.30;99.90
3638;DHT22;1835;50.068;8.154;2023-03-12T08:58:22;2.30;99.90
3638;DHT22;1835;50.068;8.154;2023-03-12T09:00:52;2.40;99.90
3638;DHT22;1835;50.068;8.154;2023-03-12T09:03:22;2.40;99.90
3638;DHT22;1835;50.068;8.154;2023-03-12T09:06:01;2.20;99.90
3638;DHT22;1835;50.068;8.154;2023-03-12T09:08:30;2.10;99.90
3638;DHT22;1835;50.068;8.154;2023-03-12T09:11:00;2.30;99.90
3638;DHT22;1835;50.068;8.154;2023-03-12T09:13:29;2.20;99.90
3638;DHT22;1835;50.068;8.154;2023-03-12T09:16:17;2.40;99.90
3638;DHT22;1835;50.068;8.154;2023-03-12T09:18:45;2.20;99.90
3638;DHT22;1835;50.068;8.154;2023-03-12T09:21:13;2.30;99.90
3638;DHT22;1835;50.068;8.154;2023-03-12T09:23:41;2.10;99.90
3638;DHT22;1835;50.068;8.154;2023-03-12T09:26:11;2.20;99.90
3638;DHT22;1835;50.068;8.154;2023-03-12T09:28:40;2.20;99.90
3638;DHT22;1835;50.068;8.154;2023-03-12T09:31:11;2.50;99.90
3638;DHT22;1835;50.068;8.154;2023-03-12T09:33:39;3.00;99.90
3638;DHT22;1835;50.068;8.154;2023-03-12T09:36:08;3.20;99.90
3638;DHT22;1835;50.068;8.154;2023-03-12T09:38:38;3.30;99.90
3638;DHT22;1835;50.068;8.154;2023-03-12T09:41:17;3.00;99.90
3638;DHT22;1835;50.068;8.154;2023-03-12T09:43:51;3.00;99.90
3638;DHT22;1835;50.068;8.154;2023-03-12T09:46:24;3.10;99.90
3638;DHT22;1835;50.068;8.154;2023-03-12T09:48:56;3.10;99.90
3638;DHT22;1835;50.068;8.154;2023-03-12T09:51:31;3.10;99.90
3638;DHT22;1835;50.068;8.154;2023-03-12T09:54:02;3.10;99.90
3638;DHT22;1835;50.068;8.154;2023-03-12T09:56:34;3.40;99.90
3638;DHT22;1835;50.068;8.154;2023-03-12T09:59:02;3.30;99.90
3638;DHT22;1835;50.068;8.154;2023-03-12T10:01:38;3.40;99.90
3638;DHT22;1835;50.068;8.154;2023-03-12T10:04:23;3.60;99.90
3638;DHT22;1835;50.068;8.154;2023-03-12T10:06:59;3.50;99.90
3638;DHT22;1835;50.068;8.154;2023-03-12T10:09:42;3.70;99.90
3638;DHT22;1835;50.068;8.154;2023-03-12T10:12:23;3.90;99.90
3638;DHT22;1835;50.068;8.154;2023-03-12T10:15:07;3.70;99.90
3638;DHT22;1835;50.068;8.154;2023-03-12T10:17:52;3.90;99.90
3638;DHT22;1835;50.068;8.154;2023-03-12T10:20:55;3.40;99.90
3638;DHT22;1835;50.068;8.154;2023-03-12T10:26:46;3.30;99.90
3638;DHT22;1835;50.068;8.154;2023-03-12T10:29:20;3.50;99.90
3638;DHT22;1835;50.068;8.154;2023-03-12T10:31:52;3.80;99.90
3638;DHT22;1835;50.068;8.154;2023-03-12T10:34:29;3.80;99.90
3638;DHT22;1835;50.068;8.154;2023-03-12T10:37:04;3.90;99.90
3638;DHT22;1835;50.068;8.154;2023-03-12T10:39:39;3.70;99.90
3638;DHT22;1835;50.068;8.154;2023-03-12T10:42:13;3.50;99.90
3638;DHT22;1835;50.068;8.154;2023-03-12T10:44:46;3.50;99.90
3638;DHT22;1835;50.068;8.154;2023-03-12T10:47:29;3.50;99.90
3638;DHT22;1835;50.068;8.154;2023-03-12T10:50:17;3.30;99.90
3638;DHT22;1835;50.068;8.154;2023-03-12T10:52:47;3.40;99.90
3638;DHT22;1835;50.068;8.154;2023-03-12T10:55:23;3.70;99.90
3638;DHT22;1835;50.068;8.154;2023-03-12T10:57:55;3.90;99.90
3638;DHT22;1835;50.068;8.154;2023-03-12T11:00:26;4.20;99.90
3638;DHT22;1835;50.068;8.154;2023-03-12T11:02:59;4.20;99.90
3638;DHT22;1835;50.068;8.154;2023-03-12T11:05:30;4.10;99.90
3638;DHT22;1835;50.068;8.154;2023-03-12T11:08:02;4.00;99.90
3638;DHT22;1835;50.068;8.154;2023-03-12T11:10:41;4.30;99.90
3638;DHT22;1835;50.068;8.154;2023-03-12T11:13:25;4.30;99.90
3638;DHT22;1835;50.068;8.154;2023-03-12T11:15:57;4.60;99.90
3638;DHT22;1835;50.068;8.154;2023-03-12T11:18:30;4.80;99.90
3638;DHT22;1835;50.068;8.154;2023-03-12T11:21:16;4.80;99.90
3638;DHT22;1835;50.068;8.154;2023-03-12T11:24:07;4.80;99.90
3638;DHT22;1835;50.068;8.154;2023-03-12T11:26:45;5.00;99.90
3638;DHT22;1835;50.068;8.154;2023-03-12T11:29:21;4.90;99.90
3638;DHT22;1835;50.068;8.154;2023-03-12T11:32:01;4.80;99.90
3638;DHT22;1835;50.068;8.154;2023-03-12T11:34:35;4.90;99.90
3638;DHT22;1835;50.068;8.154;2023-03-12T11:37:09;4.90;99.90
3638;DHT22;1835;50.068;8.154;2023-03-12T11:40:12;4.80;99.90
3638;DHT22;1835;50.068;8.154;2023-03-12T11:42:54;4.90;99.90
3638;DHT22;1835;50.068;8.154;2023-03-12T11:45:37;4.70;99.90
3638;DHT22;1835;50.068;8.154;2023-03-12T11:48:20;4.70;99.90
3638;DHT22;1835;50.068;8.154;2023-03-12T11:51:05;4.80;99.90
3638;DHT22;1835;50.068;8.154;2023-03-12T11:54:11;4.60;99.90
3638;DHT22;1835;50.068;8.154;2023-03-12T11:57:12;4.70;99.90
3638;DHT22;1835;50.068;8.154;2023-03-12T11:59:53;4.90;99.90
3638;DHT22;1835;50.068;8.154;2023-03-12T12:05:43;5.00;99.90
3638;DHT22;1835;50.068;8.154;2023-03-12T12:08:30;5.10;99.90
3638;DHT22;1835;50.068;8.154;2023-03-12T12:11:17;5.20;99.90
3638;DHT22;1835;50.068;8.154;2023-03-12T12:14:02;5.30;99.90
3638;DHT22;1835;50.068;8.154;2023-03-12T12:17:02;5.30;99.90
3638;DHT22;1835;50.068;8.154;2023-03-12T12:19:48;5.40;99.90
3638;DHT22;1835;50.068;8.154;2023-03-12T12:22:44;5.60;99.90
3638;DHT22;1835;50.068;8.154;2023-03-12T12:25:24;5.60;99.90
3638;DHT22;1835;50.068;8.154;2023-03-12T12:28:12;5.70;99.90
3638;DHT22;1835;50.068;8.154;2023-03-12T12:30:53;5.60;99.90
3638;DHT22;1835;50.068;8.154;2023-03-12T12:33:36;5.90;99.90
3638;DHT22;1835;50.068;8.154;2023-03-12T12:36:15;5.80;99.90
3638;DHT22;1835;50.068;8.154;2023-03-12T12:38:49;5.80;99.90
3638;DHT22;1835;50.068;8.154;2023-03-12T12:41:22;5.70;99.90
3638;DHT22;1835;50.068;8.154;2023-03-12T12:43:54;5.70;99.90
3638;DHT22;1835;50.068;8.154;2023-03-12T12:46:27;5.70;99.90
3638;DHT22;1835;50.068;8.154;2023-03-12T12:49:00;6.00;99.90
3638;DHT22;1835;50.068;8.154;2023-03-12T12:51:34;6.10;99.90
3638;DHT22;1835;50.068;8.154;2023-03-12T12:54:08;6.10;99.90
3638;DHT22;1835;50.068;8.154;2023-03-12T12:56:43;6.20;99.90
3638;DHT22;1835;50.068;8.154;2023-03-12T12:59:24;6.20;99.90
3638;DHT22;1835;50.068;8.154;2023-03-12T13:01:59;6.20;99.90
3638;DHT22;1835;50.068;8.154;2023-03-12T13:04:31;6.30;99.90
3638;DHT22;1835;50.068;8.154;2023-03-12T13:07:03;6.30;99.90
3638;DHT22;1835;50.068;8.154;2023-03-12T13:10:05;6.40;99.90
3638;DHT22;1835;50.068;8.154;2023-03-12T13:12:41;6.70;99.90
3638;DHT22;1835;50.068;8.154;2023-03-12T13:15:34;6.90;99.90
3638;DHT22;1835;50.068;8.154;2023-03-12T13:18:20;6.90;99.90
3638;DHT22;1835;50.068;8.154;2023-03-12T13:21:17;6.90;99.90
3638;DHT22;1835;50.068;8.154;2023-03-12T13:23:54;6.90;99.90
3638;DHT22;1835;50.068;8.154;2023-03-12T13:26:41;6.90;99.90
3638;DHT22;1835;50.068;8.154;2023-03-12T13:29:22;6.80;99.90
3638;DHT22;1835;50.068;8.154;2023-03-12T13:32:03;6.70;99.90
3638;DHT22;1835;50.068;8.154;2023-03-12T13:34:44;6.70;99.90
3638;DHT22;1835;50.068;8.154;2023-03-12T13:37:19;6.70;99.90
3638;DHT22;1835;50.068;8.154;2023-03-12T13:39:59;6.70;99.90
3638;DHT22;1835;50.068;8.154;2023-03-12T13:42:39;6.80;99.90
3638;DHT22;1835;50.068;8.154;2023-03-12T13:45:26;6.80;99.90
3638;DHT22;1835;50.068;8.154;2023-03-12T13:47:59;6.80;99.90
3638;DHT22;1835;50.068;8.154;2023-03-12T13:50:31;6.80;99.90
3638;DHT22;1835;50.068;8.154;2023-03-12T13:53:03;6.90;99.90
3638;DHT22;1835;50.068;8.154;2023-03-12T13:55:36;7.10;99.90
3638;DHT22;1835;50.068;8.154;2023-03-12T13:58:07;7.10;99.90
3638;DHT22;1835;50.068;8.154;2023-03-12T14:00:38;7.20;99.90
3638;DHT22;1835;50.068;8.154;2023-03-12T14:03:13;7.20;99.90
3638;DHT22;1835;50.068;8.154;2023-03-12T14:05:48;7.30;99.90
3638;DHT22;1835;50.068;8.154;2023-03-12T14:08:35;7.30;99.90
3638;DHT22;1835;50.068;8.154;2023-03-12T14:11:26;7.30;99.90
3638;DHT22;1835;50.068;8.154;2023-03-12T14:14:21;7.30;99.90
3638;DHT22;1835;50.068;8.154;2023-03-12T14:17:17;7.40;99.90
3638;DHT22;1835;50.068;8.154;2023-03-12T14:19:49;7.60;99.90
3638;DHT22;1835;50.068;8.154;2023-03-12T14:22:19;7.70;99.90
3638;DHT22;1835;50.068;8.154;2023-03-12T14:24:52;7.60;99.90
3638;DHT22;1835;50.068;8.154;2023-03-12T14:27:26;7.60;99.90
3638;DHT22;1835;50.068;8.154;2023-03-12T14:29:57;7.50;99.90
3638;DHT22;1835;50.068;8.154;2023-03-12T14:32:30;7.70;99.90
3638;DHT22;1835;50.068;8.154;2023-03-12T14:35:12;7.70;99.90
3638;DHT22;1835;50.068;8.154;2023-03-12T14:37:45;7.50;99.90
3638;DHT22;1835;50.068;8.154;2023-03-12T14:40:21;7.40;99.90
3638;DHT22;1835;50.068;8.154;2023-03-12T14:42:53;7.40;99.90
3638;DHT22;1835;50.068;8.154;2023-03-12T14:45:26;7.40;99.90
3638;DHT22;1835;50.068;8.154;2023-03-12T14:47:56;7.50;99.90
3638;DHT22;1835;50.068;8.154;2023-03-12T14:50:27;7.50;99.90
3638;DHT22;1835;50.068;8.154;2023-03-12T14:53:12;7.70;99.90
3638;DHT22;1835;50.068;8.154;2023-03-12T14:55:40;7.90;99.90
3638;DHT22;1835;50.068;8.154;2023-03-12T14:58:17;8.10;99.90
3638;DHT22;1835;50.068;8.154;2023-03-12T15:00:54;8.00;99.90
3638;DHT22;1835;50.068;8.154;2023-03-12T15:03:24;8.10;99.90
3638;DHT22;1835;50.068;8.154;2023-03-12T15:05:54;8.10;99.90
3638;DHT22;1835;50.068;8.154;2023-03-12T15:08:24;8.30;99.90
3638;DHT22;1835;50.068;8.154;2023-03-12T15:10:54;8.30;99.90
3638;DHT22;1835;50.068;8.154;2023-03-12T15:13:26;8.50;99.90
3638;DHT22;1835;50.068;8.154;2023-03-12T15:15:54;8.50;99.90
3638;DHT22;1835;50.068;8.154;2023-03-12T15:18:25;8.50;99.90
3638;DHT22;1835;50.068;8.154;2023-03-12T15:20:56;8.70;99.90
3638;DHT22;1835;50.068;8.154;2023-03-12T15:23:25;8.60;99.90
3638;DHT22;1835;50.068;8.154;2023-03-12T15:26:10;8.80;99.90
3638;DHT22;1835;50.068;8.154;2023-03-12T15:28:42;8.80;99.90
3638;DHT22;1835;50.068;8.154;2023-03-12T15:31:12;9.00;99.90
3638;DHT22;1835;50.068;8.154;2023-03-12T15:33:42;9.10;99.90
3638;DHT22;1835;50.068;8.154;2023-03-12T15:36:23;9.40;99.90
3638;DHT22;1835;50.068;8.154;2023-03-12T15:38:55;9.50;99.90
3638;DHT22;1835;50.068;8.154;2023-03-12T15:41:27;9.50;99.90
3638;DHT22;1835;50.068;8.154;2023-03-12T15:44:04;9.30;99.90
3638;DHT22;1835;50.068;8.154;2023-03-12T15:46:32;9.40;99.90
3638;DHT22;1835;50.068;8.154;2023-03-12T15:49:01;9.20;99.90
3638;DHT22;1835;50.068;8.154;2023-03-12T15:51:32;9.30;99.90
3638;DHT22;1835;50.068;8.154;2023-03-12T15:54:04;9.30;99.90
3638;DHT22;1835;50.068;8.154;2023-03-12T15:56:34;9.10;99.90
3638;DHT22;1835;50.068;8.154;2023-03-12T15:59:17;9.00;99.90
3638;DHT22;1835;50.068;8.154;2023-03-12T16:01:49;9.20;99.90
3638;DHT22;1835;50.068;8.154;2023-03-12T16:04:19;9.40;99.90
3638;DHT22;1835;50.068;8.154;2023-03-12T16:06:48;9.10;99.90
3638;DHT22;1835;50.068;8.154;2023-03-12T16:09:19;8.90;99.90
3638;DHT22;1835;50.068;8.154;2023-03-12T16:11:50;8.90;99.90
3638;DHT22;1835;50.068;8.154;2023-03-12T16:14:23;9.10;99.90
3638;DHT22;1835;50.068;8.154;2023-03-12T16:16:52;9.00;99.90
3638;DHT22;1835;50.068;8.154;2023-03-12T16:19:22;9.00;99.90
3638;DHT22;1835;50.068;8.154;2023-03-12T16:21:51;9.00;99.90
3638;DHT22;1835;50.068;8.154;2023-03-12T16:24:20;8.80;99.90
3638;DHT22;1835;50.068;8.154;2023-03-12T16:26:51;8.60;99.90
3638;DHT22;1835;50.068;8.154;2023-03-12T16:29:31;8.60;99.90
3638;DHT22;1835;50.068;8.154;2023-03-12T16:32:01;8.70;99.90
3638;DHT22;1835;50.068;8.154;2023-03-12T16:34:37;8.60;99.90
3638;DHT22;1835;50.068;8.154;2023-03-12T16:37:07;8.70;99.90
3638;DHT22;1835;50.068;8.154;2023-03-12T16:39:36;8.70;99.90
3638;DHT22;1835;50.068;8.154;2023-03-12T16:42:08;8.70;99.90
3638;DHT22;1835;50.068;8.154;2023-03-12T16:44:42;8.70;99.90
3638;DHT22;1835;50.068;8.154;2023-03-12T16:47:12;8.70;99.90
3638;DHT22;1835;50.068;8.154;2023-03-12T16:49:42;8.70;99.90
3638;DHT22;1835;50.068;8.154;2023-03-12T16:52:16;8.60;99.90
3638;DHT22;1835;50.068;8.154;2023-03-12T16:54:47;8.70;99.90
3638;DHT22;1835;50.068;8.154;2023-03-12T16:57:19;8.70;99.90